KDMN

Deming Municipal Airport

Deming, New Mexico, USA
METAR KDMN 232153Z AUTO 23019G23KT 10SM CLR 19/M15 A2993 RMK AO2 PK WND 22028/2138 SLP106 T01891150
Observed Flight Rules
Feb-23 @ 21:53 UTC (38 minutes ago) Visual Flight Rules
Wind Visibility Clouds
230° at 19 knots
 Gusting to 23 knots
10 miles
  • Clear skies
Temperatures Readings
Current 19°C / 66°F
Dewpoint -15°C / 5°F
Humidity 9%
Altimeter 29.93" Hg
Pressure 1010.6 hPa
Elevation 1311
METAR KDMN 232153Z AUTO 23019G23KT 10SM CLR 19/M15 A2993 RMK AO2 PK WND 22028/2138 SLP106 T01891150
Observed Flight Rules
Feb-23 @ 21:53 UTC
(38 minutes ago)
VFR
Wind Visibility
230° at 19 knots
 Gusting to 23 knots
10 miles
Clouds
  • Clear skies
Temperature Dewpoint
19°C / 66°F -15°C / 5°F
Humidity Altimeter Pressure
9% 29.93" Hg 1010.6 hPa